createdAt,value
2023-05-01T00:00:10.375Z,83.83
2023-05-01T00:01:10.368Z,86.60
2023-05-01T00:02:10.390Z,88.13
2023-05-01T00:03:10.686Z,87.33
2023-05-01T00:04:10.639Z,88.20
2023-05-01T00:05:10.443Z,89.13
2023-05-01T00:06:10.403Z,87.28
2023-05-01T00:07:10.319Z,87.41
2023-05-01T00:08:10.314Z,87.43
2023-05-01T00:09:10.288Z,87.77
2023-05-01T00:10:10.322Z,90.29
2023-05-01T00:11:10.284Z,88.40
2023-05-01T00:12:10.301Z,86.85
2023-05-01T00:13:10.285Z,87.31
2023-05-01T00:14:10.263Z,90.16
2023-05-01T00:15:10.266Z,88.97
2023-05-01T00:16:10.446Z,87.80
2023-05-01T00:17:10.348Z,87.54
2023-05-01T00:18:10.461Z,87.45
2023-05-01T00:19:10.466Z,89.30
2023-05-01T00:20:10.510Z,87.65
2023-05-01T00:21:10.519Z,87.85
2023-05-01T00:22:10.538Z,88.06
2023-05-01T00:23:10.513Z,89.43
2023-05-01T00:24:10.505Z,90.31
2023-05-01T00:25:10.522Z,88.73
2023-05-01T00:26:10.518Z,87.88
2023-05-01T00:27:10.554Z,86.59
2023-05-01T00:28:10.576Z,87.30
2023-05-01T00:29:10.646Z,87.89
2023-05-01T00:30:10.668Z,87.80
2023-05-01T00:31:10.689Z,84.61
2023-05-01T00:32:10.780Z,86.67
2023-05-01T00:33:10.851Z,89.93
2023-05-01T00:34:10.755Z,89.76
2023-05-01T00:35:10.763Z,91.36
2023-05-01T00:36:10.749Z,90.65
2023-05-01T00:37:10.734Z,92.92
2023-05-01T00:38:10.716Z,88.40
2023-05-01T00:39:10.703Z,88.07
2023-05-01T00:40:10.707Z,91.28
2023-05-01T00:41:10.740Z,87.57
2023-05-01T00:42:10.708Z,86.85
2023-05-01T00:43:10.689Z,86.73
2023-05-01T00:44:10.689Z,86.01
2023-05-01T00:45:10.691Z,89.29
2023-05-01T00:46:10.712Z,89.40
2023-05-01T00:47:10.681Z,89.54
2023-05-01T00:48:10.839Z,88.18
2023-05-01T00:49:10.629Z,90.15
2023-05-01T00:50:10.635Z,88.29
2023-05-01T00:51:10.620Z,89.54
2023-05-01T00:52:10.637Z,89.92
2023-05-01T00:53:10.601Z,89.48
2023-05-01T00:54:10.592Z,90.65
2023-05-01T00:55:10.625Z,94.05
2023-05-01T00:56:10.642Z,91.87
2023-05-01T00:57:10.565Z,88.88
2023-05-01T00:58:10.557Z,88.63
2023-05-01T00:59:10.556Z,88.88
2023-05-01T01:00:10.549Z,86.46
2023-05-01T01:01:10.579Z,87.99
2023-05-01T01:02:10.505Z,88.11
2023-05-01T01:03:10.556Z,86.72
2023-05-01T01:04:10.514Z,88.95
2023-05-01T01:05:10.468Z,89.50
2023-05-01T01:06:10.501Z,87.97
2023-05-01T01:07:10.471Z,87.61
2023-05-01T01:08:10.503Z,88.57
2023-05-01T01:09:10.457Z,89.16
2023-05-01T01:10:10.490Z,87.26
2023-05-01T01:11:10.459Z,86.02
2023-05-01T01:12:10.473Z,86.49
2023-05-01T01:13:10.465Z,85.67
2023-05-01T01:14:10.446Z,86.73
2023-05-01T01:15:10.454Z,86.72
2023-05-01T01:16:10.426Z,86.79
2023-05-01T01:17:10.559Z,87.07
2023-05-01T01:18:10.447Z,86.79
2023-05-01T01:19:10.372Z,87.56
2023-05-01T01:20:10.371Z,86.53
2023-05-01T01:21:10.347Z,86.81
2023-05-01T01:22:10.332Z,92.37
2023-05-01T01:23:10.319Z,88.78
2023-05-01T01:24:10.315Z,88.42
2023-05-01T01:25:10.318Z,87.38
2023-05-01T01:26:10.310Z,87.02
2023-05-01T01:27:10.289Z,86.95
2023-05-01T01:28:10.278Z,85.51
2023-05-01T01:29:10.293Z,86.79
2023-05-01T01:30:10.276Z,84.27
2023-05-01T01:31:10.297Z,86.92
2023-05-01T01:32:10.257Z,81.60
2023-05-01T01:33:10.291Z,86.06
2023-05-01T01:34:10.228Z,84.65
2023-05-01T01:35:10.219Z,81.58
2023-05-01T01:36:10.219Z,81.07
2023-05-01T01:37:10.192Z,82.22
2023-05-01T01:38:10.199Z,80.41
2023-05-01T01:39:10.170Z,82.68
2023-05-01T01:40:10.161Z,85.77
2023-05-01T01:41:10.160Z,83.92
2023-05-01T01:42:10.160Z,84.53
2023-05-01T01:43:10.139Z,85.68
2023-05-01T01:44:10.147Z,85.28
2023-05-01T01:45:10.142Z,83.88
2023-05-01T01:46:10.270Z,82.95
2023-05-01T01:47:10.221Z,82.70
2023-05-01T01:48:10.280Z,85.08
2023-05-01T01:49:10.252Z,82.28
2023-05-01T01:50:10.257Z,82.98
2023-05-01T01:51:10.280Z,79.51
2023-05-01T01:52:10.254Z,82.53
2023-05-01T01:53:10.259Z,79.20
2023-05-01T01:54:10.255Z,81.39
2023-05-01T01:55:10.243Z,81.36
2023-05-01T01:56:10.330Z,79.61
2023-05-01T01:57:10.227Z,79.73
2023-05-01T01:58:10.219Z,80.46
2023-05-01T01:59:10.197Z,80.25
2023-05-01T02:00:10.194Z,80.28
2023-05-01T02:01:10.182Z,81.11
2023-05-01T02:02:10.217Z,76.85
2023-05-01T02:03:10.250Z,75.91
2023-05-01T02:04:10.243Z,75.05
2023-05-01T02:05:10.120Z,75.14
2023-05-01T02:06:10.142Z,78.45
2023-05-01T02:07:10.104Z,78.01
2023-05-01T02:08:10.116Z,75.69
2023-05-01T02:09:10.087Z,78.75
2023-05-01T02:10:10.086Z,78.01
2023-05-01T02:11:10.080Z,77.36
2023-05-01T02:12:10.044Z,76.26
2023-05-01T02:13:10.047Z,78.35
2023-05-01T02:14:10.024Z,74.32
2023-05-01T02:15:10.010Z,72.35
2023-05-01T02:16:10.011Z,78.22
2023-05-01T02:17:10.000Z,77.08
2023-05-01T02:18:10.035Z,73.93
2023-05-01T02:19:09.962Z,77.85
2023-05-01T02:20:09.966Z,72.09
2023-05-01T02:21:09.971Z,73.10
2023-05-01T02:22:09.957Z,72.95
2023-05-01T02:23:09.939Z,71.57
2023-05-01T02:24:09.936Z,71.96
2023-05-01T02:25:09.917Z,69.05
2023-05-01T02:26:09.912Z,69.59
2023-05-01T02:27:09.921Z,70.94
2023-05-01T02:28:09.909Z,71.57
2023-05-01T02:29:09.899Z,72.53
2023-05-01T02:30:09.900Z,73.45
2023-05-01T02:31:09.972Z,70.18
2023-05-01T02:32:09.888Z,76.26
2023-05-01T02:33:09.966Z,72.56
2023-05-01T02:34:09.895Z,74.52
2023-05-01T02:35:09.890Z,74.47
2023-05-01T02:36:09.892Z,72.97
2023-05-01T02:37:09.871Z,72.05
2023-05-01T02:38:09.868Z,72.12
2023-05-01T02:39:09.856Z,72.79
2023-05-01T02:40:09.861Z,75.87
2023-05-01T02:41:09.861Z,76.22
2023-05-01T02:42:09.850Z,74.85
2023-05-01T02:43:09.835Z,77.05
2023-05-01T02:44:09.830Z,76.62
2023-05-01T02:45:09.851Z,75.63
2023-05-01T02:46:09.936Z,76.19
2023-05-01T02:47:09.833Z,76.28
2023-05-01T02:48:09.858Z,74.95
2023-05-01T02:49:09.848Z,77.46
2023-05-01T02:50:09.925Z,77.53
2023-05-01T02:51:09.779Z,78.10
2023-05-01T02:52:09.769Z,74.43
2023-05-01T02:53:09.748Z,78.82
2023-05-01T02:54:09.775Z,75.42
2023-05-01T02:55:09.756Z,77.40
2023-05-01T02:56:09.774Z,76.67
2023-05-01T02:57:09.756Z,72.91
2023-05-01T02:58:09.757Z,76.19
2023-05-01T02:59:09.771Z,76.66
2023-05-01T03:00:09.754Z,76.33
2023-05-01T03:01:09.816Z,77.59
2023-05-01T03:02:09.756Z,75.80
2023-05-01T03:03:09.758Z,77.00
2023-05-01T03:04:09.770Z,74.92
2023-05-01T03:05:09.724Z,77.49
2023-05-01T03:06:09.755Z,73.11
2023-05-01T03:07:09.731Z,74.47
2023-05-01T03:08:09.758Z,75.85
2023-05-01T03:09:09.726Z,77.10
2023-05-01T03:10:09.715Z,77.31
2023-05-01T03:11:09.718Z,77.88
2023-05-01T03:12:09.710Z,78.65
2023-05-01T03:13:09.691Z,80.33
2023-05-01T03:14:09.680Z,80.66
2023-05-01T03:15:09.675Z,82.07
2023-05-01T03:16:09.708Z,78.77
2023-05-01T03:17:09.628Z,80.66
2023-05-01T03:18:09.817Z,78.01
2023-05-01T03:19:09.615Z,84.54
2023-05-01T03:20:09.633Z,80.72
2023-05-01T03:21:09.596Z,78.96
2023-05-01T03:22:09.587Z,80.60
2023-05-01T03:23:09.589Z,80.44
2023-05-01T03:24:09.560Z,81.10
2023-05-01T03:25:09.556Z,80.23
2023-05-01T03:26:09.552Z,81.81
2023-05-01T03:27:09.528Z,83.20
2023-05-01T03:28:09.513Z,81.31
2023-05-01T03:29:09.498Z,80.59
2023-05-01T03:30:09.481Z,82.61
2023-05-01T03:31:09.472Z,81.67
2023-05-01T03:32:09.510Z,79.52
2023-05-01T03:33:09.471Z,83.95
2023-05-01T03:34:09.426Z,84.01
2023-05-01T03:35:09.503Z,84.57
2023-05-01T03:36:09.432Z,85.78
2023-05-01T03:37:09.409Z,84.51
2023-05-01T03:38:09.391Z,86.68
2023-05-01T03:39:09.376Z,85.91
2023-05-01T03:40:09.360Z,89.23
2023-05-01T03:41:09.345Z,87.33
2023-05-01T03:42:09.337Z,89.00
2023-05-01T03:43:09.333Z,87.57
2023-05-01T03:44:09.318Z,87.11
2023-05-01T03:45:09.308Z,81.33
2023-05-01T03:46:09.384Z,85.96
2023-05-01T03:47:09.274Z,81.74
2023-05-01T03:48:09.318Z,90.17
2023-05-01T03:49:09.253Z,87.65
2023-05-01T03:50:09.250Z,81.66
2023-05-01T03:51:09.253Z,85.15
2023-05-01T03:52:09.226Z,88.80
2023-05-01T03:53:09.227Z,87.90
2023-05-01T03:54:09.221Z,87.96
2023-05-01T03:55:09.238Z,88.13
2023-05-01T03:56:09.200Z,88.17
2023-05-01T03:57:09.192Z,84.80
2023-05-01T03:58:09.168Z,83.78
2023-05-01T03:59:09.157Z,85.84
2023-05-01T04:00:09.137Z,83.66
2023-05-01T04:01:09.146Z,83.79
2023-05-01T04:02:09.128Z,84.80
2023-05-01T04:03:09.210Z,87.33
2023-05-01T04:04:09.243Z,87.44
2023-05-01T04:05:09.098Z,87.89
2023-05-01T04:06:09.093Z,87.62
2023-05-01T04:07:09.078Z,86.09
2023-05-01T04:08:09.061Z,87.62
2023-05-01T04:09:09.054Z,88.47
2023-05-01T04:10:09.048Z,85.31
2023-05-01T04:11:09.043Z,85.32
2023-05-01T04:12:09.041Z,91.30
2023-05-01T04:13:09.021Z,86.51
2023-05-01T04:14:09.025Z,88.52
2023-05-01T04:15:09.023Z,88.85
2023-05-01T04:16:09.034Z,90.71
2023-05-01T04:17:08.997Z,88.52
2023-05-01T04:18:09.018Z,87.79
2023-05-01T04:19:08.984Z,93.00
2023-05-01T04:20:08.967Z,87.40
2023-05-01T04:21:08.970Z,88.66
2023-05-01T04:22:08.990Z,90.29
2023-05-01T04:23:08.970Z,92.49
2023-05-01T04:24:08.963Z,94.54
2023-05-01T04:25:08.966Z,89.92
2023-05-01T04:26:08.962Z,90.17
2023-05-01T04:27:08.968Z,90.28
2023-05-01T04:28:08.966Z,91.34
2023-05-01T04:29:08.947Z,93.11
2023-05-01T04:30:08.935Z,91.82
2023-05-01T04:31:08.934Z,92.23
2023-05-01T04:32:08.924Z,91.76
2023-05-01T04:33:08.915Z,94.46
2023-05-01T04:34:08.883Z,95.85
2023-05-01T04:35:08.889Z,95.90
2023-05-01T04:36:08.875Z,97.12
2023-05-01T04:37:08.872Z,93.87
2023-05-01T04:38:08.860Z,92.67
2023-05-01T04:39:08.856Z,93.39
2023-05-01T04:40:11.290Z,91.37
2023-05-01T04:41:08.848Z,94.49
2023-05-01T04:42:08.877Z,94.19
2023-05-01T04:43:08.893Z,95.78
2023-05-01T04:44:08.864Z,96.17
2023-05-01T04:45:08.839Z,95.38
2023-05-01T04:46:08.959Z,93.30
2023-05-01T04:47:08.935Z,97.33
2023-05-01T04:48:08.867Z,99.68
2023-05-01T04:49:08.839Z,97.57
2023-05-01T04:50:08.868Z,95.76
2023-05-01T04:51:08.834Z,98.04
2023-05-01T04:52:08.815Z,97.55
2023-05-01T04:53:08.822Z,97.72
2023-05-01T04:54:08.808Z,97.52
2023-05-01T04:55:08.844Z,96.31
2023-05-01T04:56:08.803Z,99.39
2023-05-01T04:57:08.808Z,97.14
2023-05-01T04:58:08.789Z,96.52
2023-05-01T04:59:08.788Z,97.25
2023-05-01T05:00:08.783Z,98.32
2023-05-01T05:01:08.821Z,99.62
2023-05-01T05:02:08.804Z,93.95
2023-05-01T05:03:08.893Z,94.84
2023-05-01T05:04:08.859Z,93.52
2023-05-01T05:05:08.762Z,96.48
2023-05-01T05:06:08.863Z,93.17
2023-05-01T05:07:08.767Z,93.42
2023-05-01T05:08:08.763Z,96.80
2023-05-01T05:09:08.775Z,94.77
2023-05-01T05:10:08.744Z,95.15
2023-05-01T05:11:08.737Z,95.18
2023-05-01T05:12:08.768Z,95.22
2023-05-01T05:13:08.748Z,95.52
2023-05-01T05:14:08.728Z,95.04
2023-05-01T05:15:08.738Z,95.06
2023-05-01T05:16:08.747Z,95.13
2023-05-01T05:17:08.712Z,95.51
2023-05-01T05:18:08.743Z,96.29
2023-05-01T05:19:08.683Z,97.23
2023-05-01T05:20:08.655Z,95.98
2023-05-01T05:21:08.647Z,94.68
2023-05-01T05:22:08.632Z,94.48
2023-05-01T05:23:08.875Z,94.83
2023-05-01T05:24:08.629Z,95.28
2023-05-01T05:25:08.610Z,94.61
2023-05-01T05:26:08.602Z,90.41
2023-05-01T05:27:08.599Z,94.91
2023-05-01T05:28:08.600Z,91.54
2023-05-01T05:29:08.587Z,93.66
2023-05-01T05:30:08.606Z,90.14
2023-05-01T05:31:08.563Z,92.12
2023-05-01T05:32:08.635Z,89.39
2023-05-01T05:33:08.606Z,90.52
2023-05-01T05:34:08.551Z,91.36
2023-05-01T05:35:08.573Z,91.70
2023-05-01T05:36:08.555Z,89.93
2023-05-01T05:37:08.534Z,91.42
2023-05-01T05:38:09.097Z,90.94
2023-05-01T05:39:08.514Z,95.32
2023-05-01T05:40:08.491Z,97.53
2023-05-01T05:41:08.484Z,91.50
2023-05-01T05:42:08.470Z,89.22
2023-05-01T05:43:08.463Z,96.57
2023-05-01T05:44:08.466Z,94.63
2023-05-01T05:45:08.451Z,91.69
2023-05-01T05:46:08.516Z,88.82
2023-05-01T05:47:08.457Z,92.96
2023-05-01T05:48:08.489Z,92.78
2023-05-01T05:49:08.423Z,89.99
2023-05-01T05:50:08.432Z,92.04
2023-05-01T05:51:08.421Z,90.00
2023-05-01T05:52:08.399Z,89.62
2023-05-01T05:53:08.390Z,89.13
2023-05-01T05:54:08.361Z,88.55
2023-05-01T05:55:08.358Z,90.89
2023-05-01T05:56:08.346Z,88.56
2023-05-01T05:57:08.377Z,91.45
2023-05-01T05:58:08.350Z,90.72
2023-05-01T05:59:08.348Z,88.58
2023-05-01T06:00:08.342Z,91.89
2023-05-01T06:01:08.377Z,94.14
2023-05-01T06:02:08.401Z,91.55
2023-05-01T06:03:08.443Z,93.18
2023-05-01T06:04:08.358Z,94.26
2023-05-01T06:05:08.409Z,92.14
2023-05-01T06:06:08.484Z,89.85
2023-05-01T06:07:08.367Z,89.87
2023-05-01T06:08:08.353Z,89.41
2023-05-01T06:09:08.394Z,89.83
2023-05-01T06:10:08.387Z,91.57
2023-05-01T06:11:08.383Z,88.37
2023-05-01T06:12:08.384Z,86.56
2023-05-01T06:13:13.697Z,87.96
2023-05-01T06:14:09.387Z,88.11
2023-05-01T06:15:08.401Z,88.94
2023-05-01T06:16:08.542Z,90.18
2023-05-01T06:17:08.353Z,90.03
2023-05-01T06:18:08.421Z,92.26
2023-05-01T06:19:08.365Z,93.22
2023-05-01T06:20:08.306Z,92.60
2023-05-01T06:21:08.300Z,89.81
2023-05-01T06:22:08.338Z,86.57
2023-05-01T06:23:08.278Z,90.31
2023-05-01T06:24:08.270Z,88.95
2023-05-01T06:25:08.272Z,90.72
2023-05-01T06:26:08.292Z,88.59
2023-05-01T06:27:08.314Z,90.93
2023-05-01T06:28:08.226Z,93.02
2023-05-01T06:29:08.230Z,90.90
2023-05-01T06:30:08.223Z,93.41
2023-05-01T06:31:08.253Z,90.50
2023-05-01T06:32:08.194Z,92.61
2023-05-01T06:33:08.213Z,93.27
2023-05-01T06:34:08.161Z,88.67
2023-05-01T06:35:08.185Z,89.69
2023-05-01T06:36:08.163Z,88.32
2023-05-01T06:37:08.166Z,90.54
2023-05-01T06:38:08.168Z,91.20
2023-05-01T06:39:08.109Z,89.63
2023-05-01T06:40:08.123Z,89.37
2023-05-01T06:41:08.206Z,89.89
2023-05-01T06:42:08.295Z,92.41
2023-05-01T06:43:08.163Z,90.79
2023-05-01T06:44:08.094Z,95.01
2023-05-01T06:45:08.058Z,94.32
2023-05-01T06:46:08.152Z,95.39
2023-05-01T06:47:08.186Z,96.38
2023-05-01T06:48:08.036Z,91.36
2023-05-01T06:49:07.977Z,91.13
2023-05-01T06:50:07.970Z,92.32
2023-05-01T06:51:07.966Z,92.14
2023-05-01T06:52:07.941Z,92.56
2023-05-01T06:53:07.918Z,94.42
2023-05-01T06:54:07.933Z,94.15
2023-05-01T06:55:07.914Z,93.93
2023-05-01T06:56:07.892Z,95.11
2023-05-01T06:57:07.907Z,94.34
2023-05-01T06:58:22.584Z,94.83
2023-05-01T06:59:08.979Z,95.08
2023-05-01T07:00:07.870Z,95.74
2023-05-01T07:01:07.899Z,95.63
2023-05-01T07:02:07.894Z,96.33
2023-05-01T07:03:07.871Z,99.23
2023-05-01T07:04:07.823Z,96.90
2023-05-01T07:05:07.843Z,95.71
2023-05-01T07:06:07.820Z,96.05
2023-05-01T07:07:07.788Z,97.29
2023-05-01T07:08:07.767Z,98.01
2023-05-01T07:09:07.763Z,98.41
2023-05-01T07:10:07.780Z,99.03
2023-05-01T07:11:07.858Z,98.83
2023-05-01T07:12:07.737Z,98.16
2023-05-01T07:13:07.765Z,98.71
2023-05-01T07:14:07.720Z,95.51
2023-05-01T07:15:07.710Z,94.71
2023-05-01T07:16:07.763Z,95.31
2023-05-01T07:17:07.701Z,96.27
2023-05-01T07:18:07.707Z,97.11
2023-05-01T07:19:07.689Z,95.99
2023-05-01T07:20:07.657Z,94.31
2023-05-01T07:21:07.691Z,92.18
2023-05-01T07:22:07.711Z,94.07
2023-05-01T07:23:07.882Z,91.79
2023-05-01T07:24:07.618Z,92.19
2023-05-01T07:25:07.582Z,87.14
2023-05-01T07:26:08.249Z,88.78
2023-05-01T07:27:07.572Z,90.60
2023-05-01T07:28:07.583Z,90.74
2023-05-01T07:29:07.529Z,90.90
2023-05-01T07:30:07.653Z,91.37
2023-05-01T07:31:07.503Z,92.09
2023-05-01T07:32:07.639Z,92.83
2023-05-01T07:33:07.522Z,90.68
2023-05-01T07:34:07.461Z,91.13
2023-05-01T07:35:07.461Z,90.82
2023-05-01T07:36:07.435Z,91.14
2023-05-01T07:37:07.468Z,85.36
2023-05-01T07:38:07.478Z,85.46
2023-05-01T07:39:07.457Z,85.99
2023-05-01T07:40:08.235Z,84.60
2023-05-01T07:41:07.411Z,87.73
2023-05-01T07:42:07.401Z,84.82
2023-05-01T07:43:07.398Z,84.81
2023-05-01T07:44:07.371Z,81.73
2023-05-01T07:45:07.356Z,83.73
2023-05-01T07:46:07.670Z,80.59
2023-05-01T07:47:07.368Z,83.64
2023-05-01T07:48:07.378Z,84.05
2023-05-01T07:49:07.309Z,85.70
2023-05-01T07:50:07.286Z,81.92
2023-05-01T07:51:07.307Z,85.66
2023-05-01T07:52:07.278Z,87.38
2023-05-01T07:53:07.265Z,83.54
2023-05-01T07:54:07.283Z,82.63
2023-05-01T07:55:07.252Z,78.56
2023-05-01T07:56:07.248Z,79.96
2023-05-01T07:57:07.253Z,78.85
2023-05-01T07:58:07.218Z,81.74
2023-05-01T07:59:07.233Z,76.75
2023-05-01T08:00:07.218Z,74.72
2023-05-01T08:01:07.341Z,76.63
2023-05-01T08:02:07.237Z,72.39
2023-05-01T08:03:07.522Z,72.44
2023-05-01T08:04:07.245Z,72.41
2023-05-01T08:05:07.171Z,68.91
2023-05-01T08:06:07.307Z,65.98
2023-05-01T08:07:07.164Z,67.91
2023-05-01T08:08:07.150Z,69.85
2023-05-01T08:09:07.148Z,67.49
2023-05-01T08:10:07.104Z,67.62
2023-05-01T08:11:07.111Z,67.77
2023-05-01T08:12:07.078Z,68.28
2023-05-01T08:13:07.055Z,65.40
2023-05-01T08:14:07.065Z,64.46
2023-05-01T08:15:07.043Z,66.28
2023-05-01T08:16:07.149Z,63.99
2023-05-01T08:17:07.043Z,62.76
2023-05-01T08:18:07.072Z,62.66
2023-05-01T08:19:07.010Z,62.57
2023-05-01T08:20:07.026Z,59.43
2023-05-01T08:21:07.015Z,59.07
2023-05-01T08:22:06.986Z,55.21
2023-05-01T08:23:06.958Z,53.74
2023-05-01T08:24:06.954Z,50.75
2023-05-01T08:25:06.959Z,46.83
2023-05-01T08:26:06.922Z,46.43
2023-05-01T08:27:06.910Z,39.62
2023-05-01T08:28:06.914Z,41.29
2023-05-01T08:29:06.890Z,36.95
2023-05-01T08:30:06.881Z,34.51
2023-05-01T08:31:06.891Z,33.54
2023-05-01T08:32:06.852Z,29.71
2023-05-01T08:33:06.916Z,27.10
2023-05-01T08:34:06.830Z,26.84
2023-05-01T08:35:06.861Z,26.19
2023-05-01T08:36:06.871Z,27.66
2023-05-01T08:37:06.857Z,25.26
2023-05-01T08:38:06.946Z,28.82
2023-05-01T08:39:06.908Z,27.14
2023-05-01T08:40:06.916Z,25.00
2023-05-01T08:41:06.972Z,27.22
2023-05-01T08:42:06.962Z,25.91
2023-05-01T08:43:06.977Z,23.95
2023-05-01T08:44:06.977Z,13.56
2023-05-01T08:45:06.909Z,16.95
2023-05-01T08:46:06.918Z,11.83
2023-05-01T08:47:06.963Z,12.65
2023-05-01T08:48:06.998Z,25.00
2023-05-01T08:49:06.868Z,25.52
2023-05-01T08:50:06.865Z,26.31
2023-05-01T08:51:06.860Z,28.87
2023-05-01T08:52:06.853Z,25.00
2023-05-01T08:53:06.872Z,25.00
2023-05-01T08:54:06.846Z,26.57
2023-05-01T08:55:06.821Z,25.00
2023-05-01T08:56:06.828Z,26.54
2023-05-01T08:57:08.302Z,29.60
2023-05-01T08:58:06.812Z,27.36
2023-05-01T08:59:06.848Z,29.14
2023-05-01T09:00:06.826Z,29.21
2023-05-01T09:01:06.846Z,26.81
2023-05-01T09:02:06.930Z,26.57
2023-05-01T09:03:06.860Z,25.67
2023-05-01T09:04:06.841Z,25.00
2023-05-01T09:05:06.783Z,27.19
2023-05-01T09:06:06.804Z,30.25
2023-05-01T09:07:06.748Z,31.21
2023-05-01T09:08:06.805Z,36.13
2023-05-01T09:09:06.759Z,36.02
2023-05-01T09:10:06.754Z,39.54
2023-05-01T09:11:06.746Z,40.13
2023-05-01T09:12:06.740Z,43.88
2023-05-01T09:13:06.796Z,48.14
2023-05-01T09:14:06.719Z,44.84
2023-05-01T09:15:07.378Z,50.66
2023-05-01T09:16:06.715Z,52.40
2023-05-01T09:17:06.678Z,52.88
2023-05-01T09:18:06.734Z,52.26
2023-05-01T09:19:06.666Z,56.40
2023-05-01T09:20:06.653Z,57.86
2023-05-01T09:21:06.656Z,56.96
2023-05-01T09:22:06.623Z,54.58
2023-05-01T09:23:06.615Z,58.14
2023-05-01T09:24:06.592Z,58.19
2023-05-01T09:25:06.609Z,59.28
2023-05-01T09:26:06.589Z,58.80
2023-05-01T09:27:06.596Z,57.91
2023-05-01T09:28:06.576Z,59.55
2023-05-01T09:29:06.599Z,60.53
2023-05-01T09:30:06.581Z,59.24
2023-05-01T09:31:06.559Z,58.45
2023-05-01T09:32:06.580Z,60.93
2023-05-01T09:33:06.647Z,60.67
2023-05-01T09:34:06.509Z,57.68
2023-05-01T09:35:06.477Z,59.49
2023-05-01T09:36:06.504Z,62.09
2023-05-01T09:37:06.425Z,62.30
2023-05-01T09:38:06.431Z,63.30
2023-05-01T09:39:06.435Z,61.40
2023-05-01T09:40:06.433Z,65.56
2023-05-01T09:41:06.416Z,66.42
2023-05-01T09:42:06.412Z,65.96
2023-05-01T09:43:06.384Z,66.24
2023-05-01T09:44:06.362Z,66.71
2023-05-01T09:45:06.355Z,68.37
2023-05-01T09:46:06.383Z,70.91
2023-05-01T09:47:06.325Z,75.60
2023-05-01T09:48:06.386Z,73.80
2023-05-01T09:49:06.303Z,75.68
2023-05-01T09:50:06.291Z,73.05
2023-05-01T09:51:06.296Z,73.24
2023-05-01T09:52:06.308Z,73.55
2023-05-01T09:53:06.320Z,74.68
2023-05-01T09:54:06.379Z,76.27
2023-05-01T09:55:06.253Z,78.84
2023-05-01T09:56:06.254Z,80.69
2023-05-01T09:57:06.246Z,82.95
2023-05-01T09:58:06.221Z,79.75
2023-05-01T09:59:06.246Z,84.36
2023-05-01T10:00:06.222Z,85.48
2023-05-01T10:01:06.233Z,83.64
2023-05-01T10:02:06.275Z,83.59
2023-05-01T10:03:07.853Z,84.78
2023-05-01T10:04:06.319Z,82.38
2023-05-01T10:05:06.318Z,81.09
2023-05-01T10:06:06.418Z,81.19
2023-05-01T10:07:06.369Z,81.60
2023-05-01T10:08:06.389Z,80.86
2023-05-01T10:09:06.422Z,82.33
2023-05-01T10:10:06.440Z,80.30
2023-05-01T10:11:06.403Z,79.49
2023-05-01T10:12:06.402Z,79.43
2023-05-01T10:13:06.407Z,76.58
2023-05-01T10:14:06.477Z,80.40
2023-05-01T10:15:23.379Z,80.83
2023-05-01T10:16:07.436Z,81.01
2023-05-01T10:17:06.417Z,81.17
2023-05-01T10:18:06.411Z,81.44
2023-05-01T10:19:06.387Z,81.10
2023-05-01T10:20:07.341Z,79.14
2023-05-01T10:21:06.313Z,76.77
2023-05-01T10:22:06.317Z,76.72
2023-05-01T10:23:06.305Z,77.57
2023-05-01T10:24:06.295Z,74.62
2023-05-01T10:25:06.254Z,75.44
2023-05-01T10:26:07.159Z,76.07
2023-05-01T10:27:06.296Z,80.03
2023-05-01T10:28:06.242Z,80.05
2023-05-01T10:29:06.221Z,75.65
2023-05-01T10:30:06.209Z,79.35
2023-05-01T10:31:06.297Z,80.07
2023-05-01T10:32:06.167Z,80.11
2023-05-01T10:33:06.215Z,78.33
2023-05-01T10:34:06.195Z,79.82
2023-05-01T10:35:06.171Z,75.80
2023-05-01T10:36:06.134Z,77.36
2023-05-01T10:37:06.122Z,76.37
2023-05-01T10:38:06.109Z,78.03
2023-05-01T10:39:06.099Z,77.42
2023-05-01T10:40:06.184Z,82.22
2023-05-01T10:41:06.081Z,80.60
2023-05-01T10:42:06.040Z,79.82
2023-05-01T10:43:06.083Z,80.02
2023-05-01T10:44:06.194Z,81.85
2023-05-01T10:45:06.819Z,79.91
2023-05-01T10:46:06.305Z,82.99
2023-05-01T10:47:06.281Z,81.46
2023-05-01T10:48:06.571Z,84.96
2023-05-01T10:49:06.484Z,83.21
2023-05-01T10:50:06.491Z,85.84
2023-05-01T10:51:06.457Z,82.96
2023-05-01T10:52:06.518Z,85.10
2023-05-01T10:53:06.565Z,83.38
2023-05-01T10:54:06.601Z,85.62
2023-05-01T10:55:06.675Z,85.79
2023-05-01T10:56:06.575Z,86.18
2023-05-01T10:57:06.588Z,88.17
2023-05-01T10:58:06.547Z,91.43
2023-05-01T10:59:06.599Z,91.53
2023-05-01T11:00:06.542Z,92.46
2023-05-01T11:01:06.533Z,92.84
2023-05-01T11:02:06.512Z,92.95
2023-05-01T11:03:06.556Z,93.56
2023-05-01T11:04:06.480Z,96.22
2023-05-01T11:05:06.590Z,95.36
2023-05-01T11:06:06.672Z,95.00
2023-05-01T11:07:06.674Z,93.29
2023-05-01T11:08:06.697Z,93.07
2023-05-01T11:09:06.763Z,92.71
2023-05-01T11:10:06.762Z,92.90
2023-05-01T11:11:06.763Z,93.01
2023-05-01T11:12:06.736Z,93.77
2023-05-01T11:13:06.734Z,91.83
2023-05-01T11:14:06.738Z,91.03
2023-05-01T11:15:06.742Z,92.78
2023-05-01T11:16:06.739Z,91.63
2023-05-01T11:17:06.697Z,90.10
2023-05-01T11:18:06.765Z,85.29
2023-05-01T11:19:06.671Z,85.76
2023-05-01T11:20:06.651Z,83.18
2023-05-01T11:21:06.646Z,81.21
2023-05-01T11:22:06.738Z,78.41
2023-05-01T11:23:06.616Z,76.24
2023-05-01T11:24:06.612Z,75.29
2023-05-01T11:25:06.652Z,68.03
2023-05-01T11:26:06.918Z,67.04
2023-05-01T11:27:06.686Z,65.47
2023-05-01T11:28:06.976Z,62.03
2023-05-01T11:29:06.662Z,61.08
2023-05-01T11:30:06.679Z,59.29
2023-05-01T11:31:06.742Z,59.19
2023-05-01T11:32:06.742Z,57.12
2023-05-01T11:33:09.814Z,59.98
2023-05-01T11:34:06.710Z,60.03
2023-05-01T11:35:06.708Z,55.46
2023-05-01T11:36:06.711Z,58.18
2023-05-01T11:37:06.824Z,56.53
2023-05-01T11:38:06.712Z,57.08
2023-05-01T11:39:06.735Z,58.52
2023-05-01T11:40:06.723Z,59.08
2023-05-01T11:41:06.720Z,58.64
2023-05-01T11:42:06.775Z,57.34
2023-05-01T11:43:06.708Z,57.97
2023-05-01T11:44:06.694Z,60.26
2023-05-01T11:45:06.773Z,59.96
2023-05-01T11:46:06.706Z,59.29
2023-05-01T11:47:06.685Z,63.33
2023-05-01T11:48:06.811Z,62.61
2023-05-01T11:49:06.695Z,62.74
2023-05-01T11:50:06.663Z,63.03
2023-05-01T11:51:06.702Z,63.49
2023-05-01T11:52:06.654Z,63.29
2023-05-01T11:53:06.637Z,65.67
2023-05-01T11:54:06.635Z,63.47
2023-05-01T11:55:06.682Z,69.18
2023-05-01T11:56:13.291Z,67.35
2023-05-01T11:57:07.631Z,67.45
2023-05-01T11:58:06.644Z,68.11
2023-05-01T11:59:06.608Z,68.34
2023-05-01T12:00:06.617Z,70.26
2023-05-01T12:01:06.588Z,72.52
2023-05-01T12:02:06.613Z,70.65
2023-05-01T12:03:06.858Z,73.20
2023-05-01T12:04:06.774Z,75.41
2023-05-01T12:05:06.586Z,76.18
2023-05-01T12:06:06.565Z,73.95
2023-05-01T12:07:06.588Z,74.42
2023-05-01T12:08:06.676Z,74.93
2023-05-01T12:09:06.695Z,73.97
2023-05-01T12:10:06.752Z,77.37
2023-05-01T12:11:06.799Z,76.35
2023-05-01T12:12:06.885Z,79.37
2023-05-01T12:13:06.966Z,76.04
2023-05-01T12:14:06.971Z,79.22
2023-05-01T12:15:07.014Z,81.27
2023-05-01T12:16:07.066Z,79.95
2023-05-01T12:17:07.203Z,79.16
2023-05-01T12:18:07.200Z,78.51
2023-05-01T12:19:07.220Z,85.65
2023-05-01T12:20:07.261Z,82.39
2023-05-01T12:21:07.311Z,83.99
2023-05-01T12:22:07.371Z,85.06
2023-05-01T12:23:07.462Z,87.88
2023-05-01T12:24:07.468Z,85.32
2023-05-01T12:25:07.521Z,91.43
2023-05-01T12:26:07.563Z,86.98
2023-05-01T12:27:07.631Z,86.00
2023-05-01T12:28:07.661Z,85.93
2023-05-01T12:29:07.718Z,86.77
2023-05-01T12:30:07.800Z,84.34
2023-05-01T12:31:07.933Z,89.01
2023-05-01T12:32:07.947Z,88.36
2023-05-01T12:33:07.911Z,86.63
2023-05-01T12:34:07.941Z,85.94
2023-05-01T12:35:07.996Z,88.34
2023-05-01T12:36:08.032Z,91.17
2023-05-01T12:37:08.088Z,90.09
2023-05-01T12:38:08.144Z,87.79
2023-05-01T12:39:08.175Z,87.59
2023-05-01T12:40:08.286Z,91.56
2023-05-01T12:41:08.246Z,92.69
2023-05-01T12:42:08.383Z,89.99
2023-05-01T12:43:08.385Z,90.15
2023-05-01T12:44:08.405Z,92.29
2023-05-01T12:45:08.449Z,94.35
2023-05-01T12:46:08.506Z,90.52
2023-05-01T12:47:08.546Z,92.71
2023-05-01T12:48:08.609Z,96.24
2023-05-01T12:49:08.571Z,96.32
2023-05-01T12:50:08.545Z,95.47
2023-05-01T12:51:08.537Z,96.05
2023-05-01T12:52:08.601Z,93.67